Clinton, IN (47842)

09:43 EDT le 27 mai 2015 (GMT -0400)
South Vermillion High School | | Change Station
CLOSE
Current Station
Stations météorologiques personnelles
Location: Clinton, IN
Altitude: 518 ft
Stations météo à proximité

Alt. 518 ft 39.69 °N, 87.41 °W | Updated 6 minutes ago

Nuageux
Nuageux
73.9 ° F
Paraît 74 ° F
N
0.0
Vent Variable Vent de NNE
Gusts 0.0 mph

Aujourd'hui
Haut(e) -- | Bas -- ° F
--% Risque de précip.
Hier
Haut(e) -- | Bas -- ° F
Precip. -- pouce
6:26 AM 9:07 PM
Lune gibbeuse croissante, 67% visible
Pression 30.05 pouce
Visibilité 10.0 Miles terrestres
Nuages Nuageux 11000 ft
indice de chaleur 74 ° F
Point de rosée 67 ° F
Humidité 79%
Précipitations 0.00 pouce
Profondeur de la couche neigeuse Non disponible.
UV 2 sur 12
Pollen 9.40 sur 12
Qualité de l'air Non disponible.
Flu Activity Sporadic
METAR KPRG 271335Z AUTO 22013G16KT 10SM BKN110 23/18 A3005 RMK AO2 T02300180

More Conditions Fewer Conditions

Pression 30.05 pouce
Visibilité 10.0 Miles terrestres
Nuages Nuageux 11000 ft
indice de chaleur 74 ° F
Point de rosée 67 ° F
Humidité 79%
Précipitations 0.00 pouce
Profondeur de la couche neigeuse Non disponible.
UV 2 sur 12
Pollen 9.40 sur 12
Qualité de l'air Non disponible.
Flu Activity Sporadic
METAR KPRG 271335Z AUTO 22013G16KT 10SM BKN110 23/18 A3005 RMK AO2 T02300180

More Conditions Fewer Conditions

10-Day Weather Forecast

Almanac

Astronomie

May. 27, 2015 Lever Coucher
Temps réel
Crépuscule civil
Crépuscule nautique
Crépuscule astronomique
Lune
Durée de lumière visible
Longueur du jour
Tomorrow will be .
, % of the Moon is Illuminated

Extrêmes aujourd'hui

State Highs State Lows

Community

WunderPhotos

Upload Photos

1,824,664 Photos téléchargées !

WunderBlogs® & News

Nearby

Qualité de l'air

  Qualité de l'air Indice de la qualité de l'air Polluant
Not available.

Épaisseur de neige

Station Depth Altitude

Activité sismique

Ville Distance Mag. Time & Date
Minimum magnitude displayed is 2.5.

Températures des eaux côtières

Lieu Température

Stations

Stations météo à proximité

Emplacement de la station Température Refroidissement éolien Point de rosée Humidité Vent Precip. Alt. Mise à jour Type